createdAt,value
2023-04-16T00:02:30.923Z,7.39
2023-04-16T00:05:33.412Z,7.37
2023-04-16T00:08:35.944Z,7.39
2023-04-16T00:11:38.433Z,7.38
2023-04-16T00:14:40.688Z,7.34
2023-04-16T00:17:43.205Z,7.26
2023-04-16T00:20:45.348Z,7.24
2023-04-16T00:23:47.837Z,7.15
2023-04-16T00:26:49.970Z,6.98
2023-04-16T00:29:52.387Z,7.05
2023-04-16T00:32:54.525Z,7.02
2023-04-16T00:35:57.093Z,6.91
2023-04-16T00:38:59.306Z,6.90
2023-04-16T00:42:02.091Z,6.90
2023-04-16T00:45:05.647Z,6.90
2023-04-16T00:48:08.097Z,6.85
2023-04-16T00:51:11.517Z,6.89
2023-04-16T00:54:13.982Z,6.86
2023-04-16T00:57:17.174Z,6.78
2023-04-16T01:00:20.414Z,6.78
2023-04-16T01:03:24.519Z,6.77
2023-04-16T01:06:27.814Z,6.66
2023-04-16T01:09:30.152Z,6.72
2023-04-16T01:12:32.623Z,6.68
2023-04-16T01:15:34.897Z,6.70
2023-04-16T01:18:38.378Z,6.60
2023-04-16T01:21:40.501Z,6.72
2023-04-16T01:24:43.250Z,6.81
2023-04-16T01:27:45.750Z,6.96
2023-04-16T01:30:48.300Z,7.04
2023-04-16T01:33:51.971Z,7.10
2023-04-16T01:36:54.418Z,7.26
2023-04-16T01:39:56.736Z,7.36
2023-04-16T01:42:59.535Z,7.40
2023-04-16T01:46:18.741Z,7.39
2023-04-16T01:49:21.475Z,7.42
2023-04-16T01:52:23.677Z,7.41
2023-04-16T01:55:26.899Z,7.44
2023-04-16T01:58:30.042Z,7.50
2023-04-16T02:01:32.689Z,7.52
2023-04-16T02:04:35.366Z,7.46
2023-04-16T02:07:37.652Z,7.45
2023-04-16T02:10:40.061Z,7.45
2023-04-16T02:13:42.702Z,7.41
2023-04-16T02:16:45.577Z,7.43
2023-04-16T02:19:48.373Z,7.45
2023-04-16T02:22:51.111Z,7.40
2023-04-16T02:25:53.709Z,7.32
2023-04-16T02:28:56.255Z,7.28
2023-04-16T02:31:59.691Z,7.29
2023-04-16T02:35:04.090Z,7.37
2023-04-16T02:38:07.190Z,7.37
2023-04-16T02:41:10.452Z,7.34
2023-04-16T02:44:12.594Z,7.32
2023-04-16T02:47:14.986Z,7.31
2023-04-16T02:50:17.832Z,7.31
2023-04-16T02:53:20.357Z,7.32
2023-04-16T02:56:22.510Z,7.33
2023-04-16T02:59:24.966Z,7.42
2023-04-16T03:02:27.470Z,7.45
2023-04-16T03:05:29.990Z,7.38
2023-04-16T03:08:32.186Z,7.36
2023-04-16T03:11:34.785Z,7.43
2023-04-16T03:14:36.897Z,7.45
2023-04-16T03:17:39.353Z,7.39
2023-04-16T03:20:41.515Z,7.37
2023-04-16T03:23:44.176Z,7.40
2023-04-16T03:26:46.309Z,7.44
2023-04-16T03:29:48.761Z,7.45
2023-04-16T03:32:51.961Z,7.43
2023-04-16T03:35:58.436Z,7.41
2023-04-16T03:39:01.709Z,7.35
2023-04-16T03:42:04.457Z,7.26
2023-04-16T03:45:09.552Z,7.25
2023-04-16T03:48:12.739Z,7.18
2023-04-16T03:51:15.027Z,7.13
2023-04-16T03:54:17.840Z,7.12
2023-04-16T03:57:20.957Z,7.03
2023-04-16T04:00:23.781Z,7.03
2023-04-16T04:03:27.453Z,7.04
2023-04-16T04:06:30.815Z,7.06
2023-04-16T04:09:34.031Z,7.08
2023-04-16T04:12:38.095Z,7.13
2023-04-16T04:15:40.598Z,7.07
2023-04-16T04:18:44.354Z,7.11
2023-04-16T04:21:47.096Z,7.20
2023-04-16T04:24:49.302Z,7.32
2023-04-16T04:27:51.770Z,7.43
2023-04-16T04:30:53.944Z,7.50
2023-04-16T04:33:56.440Z,7.59
2023-04-16T04:36:59.306Z,7.54
2023-04-16T04:40:02.826Z,7.40
2023-04-16T04:43:05.092Z,7.27
2023-04-16T04:46:08.822Z,7.09
2023-04-16T04:49:11.364Z,7.06
2023-04-16T04:52:14.193Z,7.05
2023-04-16T04:55:16.489Z,7.01
2023-04-16T04:58:18.996Z,7.02
2023-04-16T05:01:21.201Z,7.15
2023-04-16T05:04:23.711Z,7.33
2023-04-16T05:07:25.860Z,7.38
2023-04-16T05:10:28.309Z,7.48
2023-04-16T05:13:30.423Z,7.65
2023-04-16T05:16:33.031Z,7.76
2023-04-16T05:19:35.342Z,7.74
2023-04-16T05:22:37.795Z,7.77
2023-04-16T05:25:39.935Z,7.76
2023-04-16T05:28:42.336Z,7.82
2023-04-16T05:31:44.493Z,7.94
2023-04-16T05:34:46.932Z,7.88
2023-04-16T05:37:49.091Z,7.74
2023-04-16T05:40:51.569Z,7.51
2023-04-16T05:43:53.722Z,7.49
2023-04-16T05:46:56.226Z,7.54
2023-04-16T05:49:58.453Z,7.58
2023-04-16T05:53:01.054Z,7.60
2023-04-16T05:56:03.319Z,7.69
2023-04-16T05:59:05.967Z,7.77
2023-04-16T06:02:08.210Z,7.88
2023-04-16T06:05:10.933Z,7.98
2023-04-16T06:08:13.135Z,8.11
2023-04-16T06:11:15.730Z,8.22
2023-04-16T06:14:17.971Z,8.29
2023-04-16T06:17:20.522Z,8.39
2023-04-16T06:20:23.007Z,8.40
2023-04-16T06:23:25.639Z,8.41
2023-04-16T06:26:27.790Z,8.42
2023-04-16T06:29:40.559Z,8.47
2023-04-16T06:32:44.420Z,8.56
2023-04-16T06:35:47.024Z,8.61
2023-04-16T06:38:49.163Z,8.75
2023-04-16T06:41:51.621Z,8.78
2023-04-16T06:44:53.962Z,8.83
2023-04-16T06:47:58.835Z,9.05
2023-04-16T06:51:01.919Z,9.11
2023-04-16T06:54:04.460Z,9.12
2023-04-16T06:57:06.627Z,9.27
2023-04-16T07:00:09.735Z,9.38
2023-04-16T07:03:12.173Z,9.52
2023-04-16T07:06:14.889Z,9.57
2023-04-16T07:09:18.007Z,9.67
2023-04-16T07:12:22.467Z,9.76
2023-04-16T07:15:25.098Z,9.80
2023-04-16T07:18:27.638Z,9.87
2023-04-16T07:21:29.817Z,9.94
2023-04-16T07:24:32.585Z,10.07
2023-04-16T07:27:34.688Z,10.08
2023-04-16T07:30:37.174Z,10.09
2023-04-16T07:33:39.451Z,10.17
2023-04-16T07:36:41.885Z,10.22
2023-04-16T07:39:44.062Z,10.42
2023-04-16T07:42:46.581Z,10.85
2023-04-16T07:45:48.777Z,11.06
2023-04-16T07:48:51.261Z,11.10
2023-04-16T07:51:53.442Z,11.33
2023-04-16T07:54:55.862Z,11.37
2023-04-16T07:57:58.038Z,11.48
2023-04-16T08:01:01.281Z,11.37
2023-04-16T08:04:03.899Z,11.47
2023-04-16T08:07:06.188Z,11.41
2023-04-16T08:10:08.992Z,11.24
2023-04-16T08:13:11.138Z,10.96
2023-04-16T08:16:13.672Z,11.15
2023-04-16T08:19:15.869Z,11.37
2023-04-16T08:22:18.577Z,11.68
2023-04-16T08:25:21.207Z,11.91
2023-04-16T08:28:23.632Z,12.02
2023-04-16T08:31:26.088Z,12.07
2023-04-16T08:34:28.608Z,12.39
2023-04-16T08:37:30.867Z,12.29
2023-04-16T08:40:37.861Z,12.26
2023-04-16T08:43:45.372Z,12.03
2023-04-16T08:46:48.420Z,12.06
2023-04-16T08:49:52.505Z,12.06
2023-04-16T08:53:10.119Z,12.09
2023-04-16T08:56:13.450Z,12.17
2023-04-16T08:59:16.612Z,12.24
2023-04-16T09:02:19.155Z,12.29
2023-04-16T09:05:25.537Z,12.61
2023-04-16T09:08:29.032Z,12.70
2023-04-16T09:11:31.777Z,12.92
2023-04-16T09:14:34.339Z,13.09
2023-04-16T09:17:36.864Z,13.22
2023-04-16T09:20:39.605Z,13.23
2023-04-16T09:23:42.128Z,13.05
2023-04-16T09:26:44.320Z,13.05
2023-04-16T09:29:46.753Z,13.16
2023-04-16T09:32:50.285Z,13.00
2023-04-16T09:35:53.288Z,13.03
2023-04-16T09:38:57.589Z,13.00
2023-04-16T09:42:00.856Z,13.04
2023-04-16T09:45:05.518Z,12.98
2023-04-16T09:48:08.539Z,12.98
2023-04-16T09:51:10.690Z,12.94
2023-04-16T09:54:13.542Z,12.78
2023-04-16T09:57:21.129Z,12.79
2023-04-16T10:00:23.599Z,12.94
2023-04-16T10:03:33.027Z,12.97
2023-04-16T10:06:35.434Z,13.10
2023-04-16T10:09:38.834Z,13.33
2023-04-16T10:12:41.419Z,13.57
2023-04-16T10:15:44.140Z,13.70
2023-04-16T10:18:47.196Z,13.74
2023-04-16T10:21:49.884Z,13.82
2023-04-16T10:24:53.113Z,13.94
2023-04-16T10:27:57.236Z,14.02
2023-04-16T10:31:05.617Z,14.13
2023-04-16T10:34:10.028Z,14.33
2023-04-16T10:37:12.600Z,14.37
2023-04-16T10:40:26.185Z,14.43
2023-04-16T10:43:30.367Z,14.64
2023-04-16T10:46:34.538Z,14.87
2023-04-16T10:49:36.927Z,15.17
2023-04-16T10:52:40.206Z,15.15
2023-04-16T10:55:56.689Z,15.27
2023-04-16T10:58:59.148Z,15.42
2023-04-16T11:02:07.152Z,15.64
2023-04-16T11:05:09.735Z,15.85
2023-04-16T11:08:17.341Z,15.88
2023-04-16T11:11:20.668Z,16.03
2023-04-16T11:14:23.551Z,16.26
2023-04-16T11:17:44.940Z,16.33
2023-04-16T11:20:47.148Z,16.13
2023-04-16T11:23:51.697Z,15.80
2023-04-16T11:26:53.961Z,15.68
2023-04-16T11:30:04.999Z,15.70
2023-04-16T11:33:11.933Z,15.64
2023-04-16T11:36:14.514Z,15.76
2023-04-16T11:39:16.928Z,15.67
2023-04-16T11:42:22.559Z,15.58
2023-04-16T11:45:24.896Z,15.48
2023-04-16T11:48:47.788Z,15.41
2023-04-16T11:51:50.061Z,15.40
2023-04-16T11:54:52.709Z,15.33
2023-04-16T11:57:54.828Z,15.37
2023-04-16T12:00:59.600Z,15.44
2023-04-16T12:04:03.186Z,15.60
2023-04-16T12:07:09.899Z,15.73
2023-04-16T12:10:12.460Z,15.93
2023-04-16T12:13:16.352Z,16.06
2023-04-16T12:16:20.859Z,16.09
2023-04-16T12:19:23.159Z,16.07
2023-04-16T12:22:36.612Z,16.12
2023-04-16T12:25:42.800Z,16.22
2023-04-16T12:28:45.192Z,16.23
2023-04-16T12:31:51.145Z,16.22
2023-04-16T12:34:53.577Z,16.30
2023-04-16T12:37:55.768Z,16.33
2023-04-16T12:40:58.918Z,16.32
2023-04-16T12:44:12.027Z,16.44
2023-04-16T12:47:14.591Z,16.47
2023-04-16T12:50:16.889Z,16.57
2023-04-16T12:53:19.394Z,16.69
2023-04-16T12:56:21.906Z,16.77
2023-04-16T12:59:24.483Z,16.77
2023-04-16T13:02:27.096Z,16.72
2023-04-16T13:05:29.648Z,16.68
2023-04-16T13:08:31.862Z,16.76
2023-04-16T13:11:34.302Z,16.88
2023-04-16T13:14:36.516Z,17.06
2023-04-16T13:17:39.024Z,17.19
2023-04-16T13:20:41.185Z,17.16
2023-04-16T13:23:43.665Z,17.13
2023-04-16T13:26:45.861Z,17.03
2023-04-16T13:29:48.345Z,17.05
2023-04-16T13:32:50.708Z,17.06
2023-04-16T13:35:53.243Z,17.00
2023-04-16T13:38:55.777Z,16.92
2023-04-16T13:41:58.230Z,16.82
2023-04-16T13:45:01.243Z,16.78
2023-04-16T13:48:04.072Z,16.78
2023-04-16T13:51:06.355Z,16.85
2023-04-16T13:54:08.832Z,16.79
2023-04-16T13:57:12.552Z,16.79
2023-04-16T14:00:15.877Z,16.63
2023-04-16T14:03:18.407Z,16.60
2023-04-16T14:06:21.201Z,16.49
2023-04-16T14:09:23.613Z,16.53
2023-04-16T14:12:25.830Z,16.51
2023-04-16T14:15:29.920Z,16.41
2023-04-16T14:18:32.082Z,16.41
2023-04-16T14:21:34.464Z,16.38
2023-04-16T14:24:36.647Z,16.27
2023-04-16T14:27:39.411Z,16.29
2023-04-16T14:30:41.534Z,16.28
2023-04-16T14:33:44.000Z,16.30
2023-04-16T14:36:46.308Z,16.16
2023-04-16T14:39:48.827Z,16.18
2023-04-16T14:42:51.109Z,16.17
2023-04-16T14:45:53.650Z,16.16
2023-04-16T14:48:55.941Z,16.07
2023-04-16T14:51:58.431Z,16.05
2023-04-16T14:55:00.688Z,16.02
2023-04-16T14:58:03.132Z,16.03
2023-04-16T15:01:05.420Z,15.96
2023-04-16T15:04:08.833Z,15.94
2023-04-16T15:07:11.177Z,15.96
2023-04-16T15:10:13.672Z,15.93
2023-04-16T15:13:15.934Z,15.96
2023-04-16T15:16:18.500Z,15.97
2023-04-16T15:19:20.725Z,16.02
2023-04-16T15:22:23.315Z,16.02
2023-04-16T15:25:25.703Z,15.99
2023-04-16T15:28:28.163Z,15.98
2023-04-16T15:31:30.575Z,16.23
2023-04-16T15:34:33.075Z,16.48
2023-04-16T15:37:35.177Z,16.67
2023-04-16T15:40:37.686Z,16.79
2023-04-16T15:43:39.879Z,16.71
2023-04-16T15:46:42.469Z,16.67
2023-04-16T15:49:44.770Z,16.56
2023-04-16T15:52:47.464Z,16.45
2023-04-16T15:55:52.464Z,16.41
2023-04-16T15:58:54.923Z,16.34
2023-04-16T16:01:57.302Z,16.21
2023-04-16T16:05:00.763Z,16.20
2023-04-16T16:08:03.092Z,16.04
2023-04-16T16:11:05.539Z,15.95
2023-04-16T16:14:07.697Z,15.91
2023-04-16T16:17:10.139Z,15.89
2023-04-16T16:20:12.813Z,15.71
2023-04-16T16:23:15.500Z,15.70
2023-04-16T16:26:18.037Z,15.64
2023-04-16T16:29:20.699Z,15.59
2023-04-16T16:32:22.894Z,15.56
2023-04-16T16:35:26.212Z,15.55
2023-04-16T16:38:28.431Z,15.61
2023-04-16T16:41:31.153Z,15.59
2023-04-16T16:44:33.266Z,15.56
2023-04-16T16:47:35.871Z,15.55
2023-04-16T16:50:38.055Z,15.51
2023-04-16T16:53:40.715Z,15.51
2023-04-16T16:56:42.829Z,15.49
2023-04-16T16:59:46.074Z,15.44
2023-04-16T17:02:51.150Z,15.39
2023-04-16T17:05:53.828Z,15.35
2023-04-16T17:08:56.057Z,15.33
2023-04-16T17:11:58.461Z,15.29
2023-04-16T17:15:00.918Z,15.27
2023-04-16T17:18:03.509Z,15.25
2023-04-16T17:21:05.977Z,15.22
2023-04-16T17:24:08.461Z,15.15
2023-04-16T17:27:11.089Z,15.08
2023-04-16T17:30:14.229Z,15.07
2023-04-16T17:33:17.115Z,15.02
2023-04-16T17:36:21.309Z,14.90
2023-04-16T17:39:23.460Z,14.80
2023-04-16T17:42:25.874Z,14.84
2023-04-16T17:45:27.999Z,14.79
2023-04-16T17:48:30.467Z,14.64
2023-04-16T17:51:32.735Z,14.56
2023-04-16T17:54:35.352Z,14.59
2023-04-16T17:57:37.549Z,14.56
2023-04-16T18:00:40.085Z,14.44
2023-04-16T18:03:44.260Z,14.35
2023-04-16T18:06:46.590Z,14.33
2023-04-16T18:09:49.012Z,14.31
2023-04-16T18:12:51.298Z,14.28
2023-04-16T18:15:53.909Z,14.32
2023-04-16T18:18:56.233Z,14.38
2023-04-16T18:21:58.806Z,14.32
2023-04-16T18:25:01.129Z,14.26
2023-04-16T18:28:05.113Z,14.27
2023-04-16T18:31:07.834Z,14.32
2023-04-16T18:34:10.585Z,14.25
2023-04-16T18:37:12.744Z,14.25
2023-04-16T18:40:15.276Z,14.22
2023-04-16T18:43:17.434Z,14.11
2023-04-16T18:46:19.999Z,14.01
2023-04-16T18:49:22.240Z,13.99
2023-04-16T18:52:24.813Z,13.89
2023-04-16T18:55:27.008Z,13.87
2023-04-16T18:58:29.485Z,13.89
2023-04-16T19:01:31.653Z,13.85
2023-04-16T19:04:34.087Z,13.85
2023-04-16T19:07:37.506Z,13.87
2023-04-16T19:10:39.969Z,13.88
2023-04-16T19:13:43.005Z,13.82
2023-04-16T19:16:45.505Z,13.81
2023-04-16T19:19:47.709Z,13.92
2023-04-16T19:22:50.220Z,13.87
2023-04-16T19:25:52.486Z,13.89
2023-04-16T19:28:54.937Z,13.90
2023-04-16T19:31:57.156Z,13.93
2023-04-16T19:34:59.612Z,13.92
2023-04-16T19:38:01.799Z,13.95
2023-04-16T19:41:04.287Z,13.98
2023-04-16T19:44:06.924Z,14.00
2023-04-16T19:47:09.417Z,14.02
2023-04-16T19:50:11.790Z,13.95
2023-04-16T19:53:14.244Z,13.89
2023-04-16T19:56:17.098Z,13.81
2023-04-16T19:59:20.638Z,13.78
2023-04-16T20:02:22.925Z,13.74
2023-04-16T20:05:26.527Z,13.77
2023-04-16T20:08:28.619Z,13.74
2023-04-16T20:11:31.258Z,13.74
2023-04-16T20:14:33.369Z,13.79
2023-04-16T20:17:35.985Z,13.78
2023-04-16T20:20:38.240Z,13.78
2023-04-16T20:23:40.900Z,13.88
2023-04-16T20:26:43.013Z,13.86
2023-04-16T20:29:45.529Z,13.86
2023-04-16T20:32:47.757Z,13.91
2023-04-16T20:35:52.122Z,13.88
2023-04-16T20:38:54.328Z,13.92
2023-04-16T20:41:56.982Z,13.93
2023-04-16T20:45:00.695Z,13.90
2023-04-16T20:48:03.458Z,13.89
2023-04-16T20:51:07.832Z,13.92
2023-04-16T20:54:10.381Z,13.92
2023-04-16T20:57:12.568Z,13.87
2023-04-16T21:00:15.892Z,13.83
2023-04-16T21:03:19.093Z,13.87
2023-04-16T21:06:22.554Z,13.91
2023-04-16T21:09:24.709Z,13.94
2023-04-16T21:12:27.636Z,14.01
2023-04-16T21:15:30.892Z,14.01
2023-04-16T21:18:33.333Z,13.95
2023-04-16T21:21:35.631Z,13.96
2023-04-16T21:24:38.061Z,14.00
2023-04-16T21:27:40.221Z,13.95
2023-04-16T21:30:42.771Z,13.99
2023-04-16T21:33:44.940Z,13.99
2023-04-16T21:36:47.587Z,13.97
2023-04-16T21:39:50.018Z,13.90
2023-04-16T21:42:52.622Z,13.89
2023-04-16T21:45:55.035Z,13.91
2023-04-16T21:48:57.437Z,13.90
2023-04-16T21:52:02.259Z,13.97
2023-04-16T21:55:05.244Z,13.98
2023-04-16T21:58:07.359Z,14.03
2023-04-16T22:01:11.063Z,13.95
2023-04-16T22:04:14.021Z,13.91
2023-04-16T22:07:16.962Z,13.93
2023-04-16T22:10:19.632Z,13.87
2023-04-16T22:13:22.746Z,13.90
2023-04-16T22:16:25.686Z,13.87
2023-04-16T22:19:28.215Z,13.87
2023-04-16T22:22:30.608Z,13.86
2023-04-16T22:25:32.853Z,13.93
2023-04-16T22:28:35.318Z,13.92
2023-04-16T22:31:37.520Z,13.89
2023-04-16T22:34:39.943Z,14.00
2023-04-16T22:37:42.108Z,13.96
2023-04-16T22:40:47.333Z,13.93
2023-04-16T22:43:50.616Z,13.88
2023-04-16T22:46:54.832Z,13.92
2023-04-16T22:49:56.990Z,13.88
2023-04-16T22:52:59.433Z,13.87
2023-04-16T22:56:01.608Z,13.81
2023-04-16T22:59:04.620Z,13.77
2023-04-16T23:02:06.835Z,13.77
2023-04-16T23:05:09.461Z,13.71
2023-04-16T23:08:11.565Z,13.67
2023-04-16T23:11:13.949Z,13.66
2023-04-16T23:14:16.981Z,13.55
2023-04-16T23:17:19.523Z,13.62
2023-04-16T23:20:21.663Z,13.61
2023-04-16T23:23:24.186Z,13.61
2023-04-16T23:26:26.434Z,13.60
2023-04-16T23:29:28.833Z,13.60
2023-04-16T23:32:31.814Z,13.60
2023-04-16T23:35:34.581Z,13.58
2023-04-16T23:38:36.766Z,13.59
2023-04-16T23:41:39.420Z,13.56
2023-04-16T23:44:41.651Z,13.55
2023-04-16T23:47:44.689Z,13.59
2023-04-16T23:50:47.024Z,13.61
2023-04-16T23:53:49.528Z,13.62
2023-04-16T23:56:51.647Z,13.60
2023-04-16T23:59:54.396Z,13.60
